Time;durP1;ratioP1;P1;durP2;ratioP2;P2;SDS_P1;SDS_P2;PMS_P1;PMS_P2;Temp;Humidity;BMP_temperature;BMP_pressure;BME280_temperature;BME280_humidity;BME280_pressure;Samples;Min_cycle;Max_cycle;Signal;HPM_P1;HPM_P2
2022/08/18 00:00:28;;;;;;;10.93;9.93;;;;;;;;;;5042505;28;20335;-54
2022/08/18 00:02:56;;;;;;;10.02;9.13;;;;;;;;;;5040885;28;20236;-55
2022/08/18 00:05:23;;;;;;;10.50;8.93;;;;;;;;;;5033031;28;20244;-54
2022/08/18 00:07:49;;;;;;;10.50;9.20;;;;;;;;;;5034020;28;20306;-55
2022/08/18 00:10:15;;;;;;;10.57;9.55;;;;;;;;;;5043655;28;20234;-54
2022/08/18 00:12:42;;;;;;;9.32;8.63;;;;;;;;;;5044509;28;20235;-55
2022/08/18 00:15:10;;;;;;;10.15;9.10;;;;;;;;;;5038134;28;20252;-55
2022/08/18 00:17:37;;;;;;;11.07;10.05;;;;;;;;;;5032065;28;20227;-55
2022/08/18 00:20:06;;;;;;;12.00;10.20;;;;;;;;;;5039159;28;20240;-55
2022/08/18 00:22:32;;;;;;;10.02;9.13;;;;;;;;;;5040352;28;20240;-55
2022/08/18 00:24:59;;;;;;;10.43;9.40;;;;;;;;;;5039057;28;20248;-55
2022/08/18 00:27:26;;;;;;;11.20;10.30;;;;;;;;;;5039459;28;20228;-55
2022/08/18 00:29:53;;;;;;;10.40;9.48;;;;;;;;;;5037270;28;20249;-55
2022/08/18 00:32:21;;;;;;;10.95;9.68;;;;;;;;;;5037268;28;20239;-55
2022/08/18 00:34:48;;;;;;;10.90;10.00;;;;;;;;;;5039217;28;20236;-54
2022/08/18 00:37:15;;;;;;;10.05;9.15;;;;;;;;;;5041611;28;20236;-56
2022/08/18 00:39:42;;;;;;;11.02;10.13;;;;;;;;;;5036534;28;20929;-55
2022/08/18 00:42:12;;;;;;;11.65;10.43;;;;;;;;;;5036262;28;20228;-54
2022/08/18 00:44:38;;;;;;;12.07;9.90;;;;;;;;;;5041507;28;20236;-55
2022/08/18 00:47:05;;;;;;;10.65;9.65;;;;;;;;;;5040205;28;20235;-55
2022/08/18 00:49:31;;;;;;;10.77;9.68;;;;;;;;;;5038549;28;20224;-55
2022/08/18 00:51:58;;;;;;;11.27;10.25;;;;;;;;;;5043467;28;20232;-54
2022/08/18 00:54:27;;;;;;;15.00;10.30;;;;;;;;;;5037283;28;20231;-55
2022/08/18 00:56:55;;;;;;;11.50;10.43;;;;;;;;;;5042046;28;20240;-54
2022/08/18 00:59:24;;;;;;;10.05;9.25;;;;;;;;;;5041458;28;20717;-56
2022/08/18 01:01:51;;;;;;;11.30;10.40;;;;;;;;;;5034874;28;20328;-55
2022/08/18 01:04:20;;;;;;;11.02;10.13;;;;;;;;;;5036552;28;20246;-55
2022/08/18 01:06:48;;;;;;;13.32;12.00;;;;;;;;;;5035398;28;20226;-55
2022/08/18 01:09:16;;;;;;;11.35;10.35;;;;;;;;;;5042221;28;20235;-55
2022/08/18 01:11:44;;;;;;;11.00;10.00;;;;;;;;;;5041612;28;20243;-55
2022/08/18 01:14:14;;;;;;;11.55;10.48;;;;;;;;;;5036439;28;20235;-54
2022/08/18 01:22:13;;;;;;;10.48;9.68;;;;;;;;;;5040630;28;20234;-55
2022/08/18 01:27:26;;;;;;;9.95;8.90;;;;;;;;;;5032417;28;20940;-56
2022/08/18 01:29:52;;;;;;;9.52;8.63;;;;;;;;;;5030368;28;20318;-56
2022/08/18 01:32:23;;;;;;;10.10;9.25;;;;;;;;;;5034119;28;20240;-55
2022/08/18 01:34:51;;;;;;;10.13;9.32;;;;;;;;;;5030821;28;20224;-56
2022/08/18 01:37:19;;;;;;;10.00;9.10;;;;;;;;;;5041704;28;20710;-55
2022/08/18 01:39:47;;;;;;;9.13;8.32;;;;;;;;;;5038272;28;20246;-55
2022/08/18 01:42:15;;;;;;;10.52;9.70;;;;;;;;;;5041792;28;20319;-55
2022/08/18 01:44:42;;;;;;;9.82;9.02;;;;;;;;;;5036278;28;21100;-54
2022/08/18 01:47:09;;;;;;;9.50;8.65;;;;;;;;;;5033432;28;20236;-55
2022/08/18 01:49:36;;;;;;;9.20;8.45;;;;;;;;;;5038730;28;20230;-55
2022/08/18 01:52:05;;;;;;;8.57;7.78;;;;;;;;;;5036005;28;20236;-54
2022/08/18 01:54:32;;;;;;;7.97;7.35;;;;;;;;;;5042141;28;20772;-55
2022/08/18 01:56:59;;;;;;;8.48;7.70;;;;;;;;;;5037653;28;20227;-55
2022/08/18 01:59:26;;;;;;;9.10;7.97;;;;;;;;;;5038252;28;20943;-54
2022/08/18 02:01:55;;;;;;;9.80;9.00;;;;;;;;;;5042847;28;20244;-56
2022/08/18 02:04:23;;;;;;;9.68;8.88;;;;;;;;;;5037576;28;20324;-55
2022/08/18 02:06:49;;;;;;;8.45;7.68;;;;;;;;;;5042140;28;20252;-55
2022/08/18 02:09:16;;;;;;;8.88;8.18;;;;;;;;;;5034009;28;20232;-54
2022/08/18 02:11:42;;;;;;;9.57;8.77;;;;;;;;;;5041723;28;26394;-55
2022/08/18 02:14:10;;;;;;;9.82;8.85;;;;;;;;;;5036259;28;20239;-55
2022/08/18 02:16:36;;;;;;;9.30;8.52;;;;;;;;;;5040508;28;20228;-55
2022/08/18 02:19:02;;;;;;;8.38;7.68;;;;;;;;;;5038620;28;20232;-56
2022/08/18 02:21:29;;;;;;;10.13;9.32;;;;;;;;;;5038937;28;20314;-55
2022/08/18 02:23:55;;;;;;;8.70;7.90;;;;;;;;;;5038439;28;20315;-55
2022/08/18 02:26:23;;;;;;;10.45;9.40;;;;;;;;;;5040207;28;20232;-55
2022/08/18 02:28:49;;;;;;;10.35;9.27;;;;;;;;;;5036653;28;20233;-56
2022/08/18 02:31:18;;;;;;;11.05;8.68;;;;;;;;;;5038498;28;20239;-55
2022/08/18 02:33:45;;;;;;;10.68;9.57;;;;;;;;;;5041102;28;20232;-55
2022/08/18 02:36:12;;;;;;;9.77;8.93;;;;;;;;;;5044439;28;20244;-54
2022/08/18 02:38:39;;;;;;;10.52;9.55;;;;;;;;;;5045902;28;20310;-54
2022/08/18 02:41:06;;;;;;;10.57;9.60;;;;;;;;;;5042821;28;20239;-56
2022/08/18 02:43:33;;;;;;;11.98;10.43;;;;;;;;;;5037650;28;20232;-55
2022/08/18 02:45:59;;;;;;;10.15;9.10;;;;;;;;;;5033560;28;20239;-56
2022/08/18 02:48:30;;;;;;;12.05;8.85;;;;;;;;;;5041896;28;20256;-54
2022/08/18 02:50:59;;;;;;;9.73;8.85;;;;;;;;;;5046281;28;20236;-54
2022/08/18 02:53:27;;;;;;;9.68;8.82;;;;;;;;;;5035908;28;20239;-55
2022/08/18 02:55:53;;;;;;;9.38;8.57;;;;;;;;;;5037224;28;20568;-55
2022/08/18 02:58:20;;;;;;;9.88;8.88;;;;;;;;;;5041763;28;20748;-53
2022/08/18 03:00:46;;;;;;;9.70;8.80;;;;;;;;;;5043386;28;20231;-55
2022/08/18 03:03:12;;;;;;;8.55;7.85;;;;;;;;;;5041174;28;20248;-56
2022/08/18 03:05:40;;;;;;;9.45;8.55;;;;;;;;;;5033586;28;20267;-54
2022/08/18 03:08:10;;;;;;;9.57;8.85;;;;;;;;;;5034973;28;20236;-55
2022/08/18 03:10:37;;;;;;;11.02;9.10;;;;;;;;;;5043306;28;20725;-54
2022/08/18 03:13:04;;;;;;;9.32;8.52;;;;;;;;;;5038951;28;20265;-54
2022/08/18 03:15:31;;;;;;;10.43;9.43;;;;;;;;;;5042521;28;20231;-55
2022/08/18 03:17:57;;;;;;;9.48;8.70;;;;;;;;;;5041842;28;20255;-54
2022/08/18 03:20:23;;;;;;;12.38;10.27;;;;;;;;;;5043529;28;20232;-55
2022/08/18 03:22:51;;;;;;;8.90;8.18;;;;;;;;;;5041699;28;20240;-56
2022/08/18 03:25:17;;;;;;;11.10;9.68;;;;;;;;;;5044510;28;20232;-56
2022/08/18 03:27:44;;;;;;;10.77;9.35;;;;;;;;;;5044257;28;20234;-55
2022/08/18 03:30:10;;;;;;;10.23;9.40;;;;;;;;;;5041749;28;20605;-54
2022/08/18 03:32:36;;;;;;;11.35;10.30;;;;;;;;;;5042016;28;20245;-55
2022/08/18 03:35:03;;;;;;;11.05;10.07;;;;;;;;;;5035727;28;20895;-55
2022/08/18 03:37:29;;;;;;;10.77;9.85;;;;;;;;;;5040407;28;20228;-55
2022/08/18 03:39:57;;;;;;;10.82;9.60;;;;;;;;;;5036004;28;20231;-56
2022/08/18 03:42:23;;;;;;;9.27;8.55;;;;;;;;;;5042455;28;20232;-55
2022/08/18 03:44:50;;;;;;;11.50;10.15;;;;;;;;;;5039496;28;20236;-55
2022/08/18 03:47:16;;;;;;;10.63;9.63;;;;;;;;;;5043661;28;20581;-55
2022/08/18 03:49:44;;;;;;;9.60;8.80;;;;;;;;;;5037855;28;20248;-55
2022/08/18 03:52:11;;;;;;;11.50;10.50;;;;;;;;;;5042080;28;20224;-55
2022/08/18 03:54:38;;;;;;;10.88;9.88;;;;;;;;;;5042814;28;20231;-55
2022/08/18 03:57:07;;;;;;;11.40;10.27;;;;;;;;;;5039857;28;20224;-55
2022/08/18 03:59:33;;;;;;;10.15;9.15;;;;;;;;;;5040437;28;20229;-56
2022/08/18 04:02:02;;;;;;;10.43;9.50;;;;;;;;;;5039963;28;20236;-55
2022/08/18 04:04:28;;;;;;;10.23;9.35;;;;;;;;;;5038429;28;20228;-57
2022/08/18 04:06:57;;;;;;;10.15;9.27;;;;;;;;;;5036127;28;20228;-55
2022/08/18 04:09:24;;;;;;;11.60;10.38;;;;;;;;;;5043074;28;20235;-56
2022/08/18 04:11:51;;;;;;;10.55;9.55;;;;;;;;;;5038316;28;20232;-55
2022/08/18 04:14:23;;;;;;;11.35;10.25;;;;;;;;;;5034606;28;20559;-55
2022/08/18 04:16:50;;;;;;;11.70;10.55;;;;;;;;;;5042812;28;20252;-56
2022/08/18 04:19:17;;;;;;;12.02;10.93;;;;;;;;;;5045861;28;20236;-55
2022/08/18 04:21:44;;;;;;;11.75;10.63;;;;;;;;;;5044313;28;20248;-55
2022/08/18 04:24:11;;;;;;;14.73;11.50;;;;;;;;;;5041542;28;20239;-56
2022/08/18 04:26:39;;;;;;;11.75;10.30;;;;;;;;;;5035673;28;20236;-54
2022/08/18 04:29:06;;;;;;;11.98;10.98;;;;;;;;;;5040353;28;20238;-55
2022/08/18 04:31:34;;;;;;;10.98;10.05;;;;;;;;;;5034785;28;20259;-55
2022/08/18 04:34:02;;;;;;;12.95;10.65;;;;;;;;;;5037796;28;20250;-55
2022/08/18 04:36:29;;;;;;;11.73;10.75;;;;;;;;;;5041749;28;20229;-56
2022/08/18 04:38:56;;;;;;;12.25;11.15;;;;;;;;;;5039522;28;20235;-55
2022/08/18 04:41:25;;;;;;;10.63;9.82;;;;;;;;;;5041349;28;20239;-55
2022/08/18 04:43:51;;;;;;;10.85;9.95;;;;;;;;;;5037492;28;20341;-54
2022/08/18 04:46:17;;;;;;;10.27;9.38;;;;;;;;;;5039206;28;20223;-54
2022/08/18 04:48:45;;;;;;;11.70;10.60;;;;;;;;;;5034543;28;20239;-55
2022/08/18 04:51:12;;;;;;;12.05;10.95;;;;;;;;;;5034137;28;20799;-54
2022/08/18 04:53:44;;;;;;;12.38;11.18;;;;;;;;;;5034111;28;20239;-54
2022/08/18 04:56:13;;;;;;;12.50;11.00;;;;;;;;;;5039266;28;20605;-55
2022/08/18 04:58:39;;;;;;;11.70;10.60;;;;;;;;;;5038525;28;20228;-55
2022/08/18 05:01:06;;;;;;;12.98;11.63;;;;;;;;;;5040312;28;20247;-55
2022/08/18 05:03:32;;;;;;;11.32;10.27;;;;;;;;;;5036429;28;20232;-55
2022/08/18 05:06:03;;;;;;;10.98;10.07;;;;;;;;;;5041727;28;20231;-55
2022/08/18 05:08:30;;;;;;;12.30;11.00;;;;;;;;;;5036442;28;20224;-55
2022/08/18 05:10:59;;;;;;;14.23;12.40;;;;;;;;;;5037407;28;20243;-55
2022/08/18 05:13:25;;;;;;;15.77;11.15;;;;;;;;;;5033222;28;20498;-55
2022/08/18 05:15:52;;;;;;;20.55;11.68;;;;;;;;;;5041226;28;20658;-55
2022/08/18 05:18:23;;;;;;;12.65;11.48;;;;;;;;;;5038978;28;20718;-54
2022/08/18 05:20:50;;;;;;;13.75;10.95;;;;;;;;;;5037536;28;20227;-54
2022/08/18 05:23:17;;;;;;;12.45;10.88;;;;;;;;;;5042520;28;20246;-56
2022/08/18 05:25:44;;;;;;;11.77;10.70;;;;;;;;;;5039271;28;20246;-55
2022/08/18 05:28:10;;;;;;;14.77;11.55;;;;;;;;;;5033733;28;20240;-54
2022/08/18 05:30:37;;;;;;;11.90;10.90;;;;;;;;;;5037717;28;20228;-55
2022/08/18 05:33:03;;;;;;;12.90;11.77;;;;;;;;;;5040143;28;20607;-56
2022/08/18 05:35:33;;;;;;;11.27;10.25;;;;;;;;;;5042799;28;20226;-55
2022/08/18 05:38:10;;;;;;;12.80;11.35;;;;;;;;;;5042723;28;20231;-55
2022/08/18 05:40:38;;;;;;;12.40;11.40;;;;;;;;;;5040009;28;20293;-55
2022/08/18 05:43:05;;;;;;;13.30;11.98;;;;;;;;;;5034024;28;20656;-55
2022/08/18 05:45:33;;;;;;;13.52;10.52;;;;;;;;;;5034483;28;20227;-55
2022/08/18 05:48:00;;;;;;;15.07;12.05;;;;;;;;;;5040505;28;20865;-55
2022/08/18 05:50:27;;;;;;;13.80;12.30;;;;;;;;;;5038755;28;20741;-55
2022/08/18 05:52:55;;;;;;;10.85;9.90;;;;;;;;;;5037113;28;20228;-59
2022/08/18 05:58:13;;;;;;;11.23;10.00;;;;;;;;;;5041610;28;20244;-55
2022/08/18 06:00:40;;;;;;;11.00;10.00;;;;;;;;;;5033927;28;20690;-55
2022/08/18 06:03:08;;;;;;;10.02;9.13;;;;;;;;;;5028317;28;20242;-54
2022/08/18 06:05:36;;;;;;;11.35;10.20;;;;;;;;;;5037421;28;20231;-54
2022/08/18 06:08:04;;;;;;;11.88;10.68;;;;;;;;;;5033642;28;20235;-55
2022/08/18 06:10:31;;;;;;;11.20;10.18;;;;;;;;;;5028960;28;20312;-54
2022/08/18 06:12:59;;;;;;;14.00;10.68;;;;;;;;;;5037842;28;20243;-57
2022/08/18 06:15:30;;;;;;;14.30;10.20;;;;;;;;;;5045364;28;20247;-55
2022/08/18 06:18:11;;;;;;;11.65;10.52;;;;;;;;;;5037589;28;20315;-56
2022/08/18 06:20:43;;;;;;;16.92;10.27;;;;;;;;;;5042862;28;20223;-55
2022/08/18 06:23:17;;;;;;;11.77;10.57;;;;;;;;;;5039116;28;20770;-55
2022/08/18 06:25:49;;;;;;;11.48;10.38;;;;;;;;;;5047712;28;20239;-54
2022/08/18 06:28:16;;;;;;;10.68;9.68;;;;;;;;;;5046791;28;20224;-55
2022/08/18 06:30:48;;;;;;;11.75;10.65;;;;;;;;;;5041762;28;20246;-56
2022/08/18 06:33:21;;;;;;;12.85;11.65;;;;;;;;;;5045924;28;20239;-55
2022/08/18 06:35:50;;;;;;;12.00;10.75;;;;;;;;;;5040449;28;20225;-55
2022/08/18 06:38:38;;;;;;;11.40;10.27;;;;;;;;;;5043797;28;20231;-55
2022/08/18 06:41:09;;;;;;;11.13;9.98;;;;;;;;;;5038704;28;20246;-55
2022/08/18 06:43:36;;;;;;;10.82;9.65;;;;;;;;;;5042206;28;20697;-55
2022/08/18 06:46:07;;;;;;;12.32;11.10;;;;;;;;;;5043925;28;20239;-54
2022/08/18 06:48:37;;;;;;;11.40;9.43;;;;;;;;;;5038918;28;20236;-54
2022/08/18 06:51:06;;;;;;;11.38;10.25;;;;;;;;;;5036248;28;20726;-56
2022/08/18 06:53:49;;;;;;;10.13;9.18;;;;;;;;;;5040869;28;20860;-55
2022/08/18 06:56:23;;;;;;;9.95;8.68;;;;;;;;;;5042873;28;20235;-55
2022/08/18 06:58:51;;;;;;;14.60;10.25;;;;;;;;;;5041223;28;20240;-55
2022/08/18 07:01:20;;;;;;;9.93;9.13;;;;;;;;;;5036815;28;20816;-56
2022/08/18 07:03:50;;;;;;;11.25;10.23;;;;;;;;;;5038032;28;20632;-55
2022/08/18 07:06:28;;;;;;;12.45;11.15;;;;;;;;;;5041554;28;20315;-54
2022/08/18 07:08:55;;;;;;;10.63;9.73;;;;;;;;;;5033476;28;20229;-54
2022/08/18 07:11:25;;;;;;;10.38;9.48;;;;;;;;;;5037382;28;20235;-54
2022/08/18 07:13:53;;;;;;;11.52;10.43;;;;;;;;;;5038794;28;20228;-54
2022/08/18 07:16:23;;;;;;;11.13;10.05;;;;;;;;;;5036714;28;20332;-55
2022/08/18 07:18:50;;;;;;;10.50;9.50;;;;;;;;;;5041134;28;20252;-54
2022/08/18 07:21:27;;;;;;;10.95;9.95;;;;;;;;;;5041635;28;20242;-56
2022/08/18 07:24:01;;;;;;;11.70;10.52;;;;;;;;;;5042168;28;20686;-56
2022/08/18 07:26:27;;;;;;;10.75;9.73;;;;;;;;;;5036229;28;20287;-55
2022/08/18 07:28:54;;;;;;;10.90;10.00;;;;;;;;;;5041019;28;20807;-62
2022/08/18 07:31:27;;;;;;;9.95;9.02;;;;;;;;;;5040995;28;20974;-55
2022/08/18 07:33:57;;;;;;;10.65;9.65;;;;;;;;;;5038718;28;20876;-58
2022/08/18 07:36:25;;;;;;;11.45;10.45;;;;;;;;;;5041592;28;20230;-54
2022/08/18 07:38:55;;;;;;;11.25;10.02;;;;;;;;;;5036384;28;20314;-55
2022/08/18 07:41:25;;;;;;;10.68;9.50;;;;;;;;;;5045711;22;20248;-54
2022/08/18 07:43:57;;;;;;;9.82;8.88;;;;;;;;;;5043593;28;22274;-53
2022/08/18 07:46:28;;;;;;;11.10;10.07;;;;;;;;;;5033928;28;20876;-52
2022/08/18 07:48:56;;;;;;;10.93;9.82;;;;;;;;;;5038099;28;20289;-54
2022/08/18 07:51:24;;;;;;;11.38;10.23;;;;;;;;;;5041976;28;20235;-54
2022/08/18 07:53:53;;;;;;;10.73;9.70;;;;;;;;;;5037365;28;20239;-53
2022/08/18 07:56:23;;;;;;;11.50;10.13;;;;;;;;;;5042549;28;20224;-53
2022/08/18 07:58:53;;;;;;;12.18;10.07;;;;;;;;;;5037672;28;20310;-53
2022/08/18 08:01:22;;;;;;;12.02;10.65;;;;;;;;;;5038039;28;20295;-54
2022/08/18 08:03:52;;;;;;;12.15;10.82;;;;;;;;;;5039558;28;20230;-53
2022/08/18 08:06:22;;;;;;;12.65;10.48;;;;;;;;;;5039965;28;20238;-54
2022/08/18 08:08:54;;;;;;;13.63;12.18;;;;;;;;;;5042420;28;20239;-54
2022/08/18 08:11:25;;;;;;;13.10;11.63;;;;;;;;;;5036722;28;20319;-53
2022/08/18 08:14:00;;;;;;;12.35;10.43;;;;;;;;;;5035753;28;20248;-53
2022/08/18 08:16:34;;;;;;;11.90;10.68;;;;;;;;;;5041124;28;20532;-53
2022/08/18 08:19:07;;;;;;;14.70;11.85;;;;;;;;;;5043915;28;20692;-54
2022/08/18 08:21:37;;;;;;;13.10;10.70;;;;;;;;;;5028737;28;20242;-54
2022/08/18 08:24:09;;;;;;;13.13;9.98;;;;;;;;;;5033229;28;20237;-55
2022/08/18 08:26:41;;;;;;;9.68;8.68;;;;;;;;;;5039667;28;20710;-54
2022/08/18 08:29:11;;;;;;;9.85;8.95;;;;;;;;;;5033829;28;20243;-56
2022/08/18 08:31:43;;;;;;;11.63;10.52;;;;;;;;;;5036242;28;20236;-55
2022/08/18 08:34:13;;;;;;;11.48;10.48;;;;;;;;;;5038904;28;20322;-54
2022/08/18 08:36:41;;;;;;;10.07;9.18;;;;;;;;;;5038607;28;20231;-58
2022/08/18 08:39:10;;;;;;;10.93;9.82;;;;;;;;;;5031046;28;20236;-56
2022/08/18 08:41:38;;;;;;;10.50;9.60;;;;;;;;;;5041336;28;20598;-54
2022/08/18 08:44:08;;;;;;;11.18;10.05;;;;;;;;;;5038013;28;20240;-53
2022/08/18 08:46:38;;;;;;;11.70;10.63;;;;;;;;;;5038953;28;20237;-55
2022/08/18 08:49:07;;;;;;;10.60;9.55;;;;;;;;;;5042217;28;20240;-54
2022/08/18 08:51:38;;;;;;;11.48;10.48;;;;;;;;;;5043931;28;20228;-55
2022/08/18 08:54:08;;;;;;;11.07;9.98;;;;;;;;;;5044679;28;20235;-56
2022/08/18 08:56:35;;;;;;;12.30;9.63;;;;;;;;;;5035526;28;20612;-55
2022/08/18 08:59:04;;;;;;;11.40;10.38;;;;;;;;;;5028974;28;20232;-55
2022/08/18 09:01:34;;;;;;;11.55;10.50;;;;;;;;;;5035633;28;20232;-55
2022/08/18 09:04:05;;;;;;;14.57;12.10;;;;;;;;;;5039564;28;20333;-55
2022/08/18 09:06:37;;;;;;;12.15;11.07;;;;;;;;;;5038624;28;20266;-55
2022/08/18 09:09:18;;;;;;;11.63;10.55;;;;;;;;;;5036101;28;20268;-55
2022/08/18 09:11:52;;;;;;;13.27;10.32;;;;;;;;;;5035802;28;20244;-54
2022/08/18 09:14:33;;;;;;;11.45;10.40;;;;;;;;;;5029478;28;20279;-54
2022/08/18 09:17:11;;;;;;;12.13;10.63;;;;;;;;;;5031133;28;20227;-56
2022/08/18 09:19:51;;;;;;;12.35;11.25;;;;;;;;;;5035630;28;20234;-54
2022/08/18 09:22:23;;;;;;;17.05;12.07;;;;;;;;;;5043040;28;20265;-55
2022/08/18 09:24:53;;;;;;;13.02;12.00;;;;;;;;;;5038241;28;20227;-55
2022/08/18 09:27:42;;;;;;;13.27;11.98;;;;;;;;;;5040569;28;20270;-59
2022/08/18 09:30:29;;;;;;;13.70;12.30;;;;;;;;;;5038874;28;20232;-54
2022/08/18 09:32:57;;;;;;;15.02;11.55;;;;;;;;;;5038480;28;20237;-54
2022/08/18 09:35:35;;;;;;;13.43;12.00;;;;;;;;;;5043203;28;20919;-55
2022/08/18 09:43:53;;;;;;;12.43;11.15;;;;;;;;;;5033150;28;20338;-54
2022/08/18 09:46:35;;;;;;;13.68;12.27;;;;;;;;;;5043827;28;20296;-55
2022/08/18 09:49:16;;;;;;;20.10;11.40;;;;;;;;;;5041015;28;20779;-55
2022/08/18 09:51:42;;;;;;;13.23;11.73;;;;;;;;;;5040087;28;20237;-55
2022/08/18 09:54:13;;;;;;;12.30;11.20;;;;;;;;;;5043274;28;20271;-55
2022/08/18 09:57:05;;;;;;;13.15;11.43;;;;;;;;;;5038588;28;20320;-56
2022/08/18 09:59:50;;;;;;;15.63;12.55;;;;;;;;;;5042954;28;20227;-55
2022/08/18 10:02:31;;;;;;;12.38;11.20;;;;;;;;;;5043426;28;20238;-54
2022/08/18 10:05:22;;;;;;;13.40;11.30;;;;;;;;;;5045484;28;20235;-55
2022/08/18 10:07:49;;;;;;;14.45;11.95;;;;;;;;;;5043035;28;20724;-55
2022/08/18 10:10:21;;;;;;;13.05;11.48;;;;;;;;;;5045687;28;20335;-56
2022/08/18 10:13:05;;;;;;;12.60;11.40;;;;;;;;;;5043294;28;20240;-56
2022/08/18 10:15:39;;;;;;;17.25;15.52;;;;;;;;;;5040452;28;20246;-55
2022/08/18 10:18:16;;;;;;;16.70;15.10;;;;;;;;;;5042797;28;20239;-55
2022/08/18 10:20:49;;;;;;;15.10;12.65;;;;;;;;;;5041423;28;20232;-57
2022/08/18 10:23:30;;;;;;;15.38;13.88;;;;;;;;;;5039622;28;22810;-55
2022/08/18 10:25:56;;;;;;;15.18;13.23;;;;;;;;;;5034685;28;20243;-55
2022/08/18 10:28:37;;;;;;;13.95;12.05;;;;;;;;;;5049263;28;20228;-54
2022/08/18 10:31:07;;;;;;;15.10;13.60;;;;;;;;;;5034824;28;20239;-54
2022/08/18 10:33:57;;;;;;;14.15;12.65;;;;;;;;;;5037079;28;20756;-55
2022/08/18 10:36:36;;;;;;;14.15;12.65;;;;;;;;;;5026126;28;20235;-54
2022/08/18 10:39:04;;;;;;;13.75;12.43;;;;;;;;;;5046157;28;20319;-55
2022/08/18 10:41:31;;;;;;;15.45;12.90;;;;;;;;;;5043340;28;20319;-56
2022/08/18 10:43:58;;;;;;;12.18;11.07;;;;;;;;;;5042244;28;20243;-55
2022/08/18 10:46:29;;;;;;;11.80;10.80;;;;;;;;;;5056104;22;20216;-52
2022/08/18 10:49:00;;;;;;;12.55;11.32;;;;;;;;;;5064993;28;20227;-52
2022/08/18 10:51:30;;;;;;;12.90;11.80;;;;;;;;;;5064523;28;20245;-53
2022/08/18 10:53:59;;;;;;;11.40;10.27;;;;;;;;;;5060203;28;20231;-53
2022/08/18 10:56:29;;;;;;;16.02;11.63;;;;;;;;;;5052873;28;20662;-53
2022/08/18 10:59:01;;;;;;;11.65;10.55;;;;;;;;;;5043147;28;20243;-52
2022/08/18 11:01:36;;;;;;;13.13;10.88;;;;;;;;;;5043151;28;20255;-52
2022/08/18 11:04:05;;;;;;;13.15;11.48;;;;;;;;;;5040531;28;20235;-51
2022/08/18 11:06:36;;;;;;;12.10;10.85;;;;;;;;;;5033451;28;20741;-52
2022/08/18 11:09:03;;;;;;;12.02;10.82;;;;;;;;;;5037264;28;20232;-52
2022/08/18 11:11:32;;;;;;;12.88;10.90;;;;;;;;;;5036217;28;20234;-52
2022/08/18 11:14:03;;;;;;;11.52;10.52;;;;;;;;;;5039504;28;20596;-52
2022/08/18 11:16:37;;;;;;;12.68;11.25;;;;;;;;;;5038196;28;20236;-52
2022/08/18 11:19:07;;;;;;;11.60;10.40;;;;;;;;;;5041373;28;20239;-52
2022/08/18 11:21:38;;;;;;;11.80;10.70;;;;;;;;;;5037973;28;20239;-51
2022/08/18 11:24:06;;;;;;;10.98;9.88;;;;;;;;;;5032476;28;20232;-52
2022/08/18 11:26:33;;;;;;;10.48;9.38;;;;;;;;;;5041266;28;20702;-52
2022/08/18 11:29:00;;;;;;;10.73;9.68;;;;;;;;;;5042878;28;20779;-53
2022/08/18 11:31:26;;;;;;;11.13;9.85;;;;;;;;;;5041539;28;20247;-52
2022/08/18 11:33:54;;;;;;;10.18;9.35;;;;;;;;;;5041213;28;20227;-52
2022/08/18 11:36:29;;;;;;;11.10;9.10;;;;;;;;;;5040755;28;20320;-52
2022/08/18 11:38:55;;;;;;;12.23;9.23;;;;;;;;;;5039149;28;20601;-52
2022/08/18 11:41:26;;;;;;;9.90;8.95;;;;;;;;;;5035420;28;20235;-52
2022/08/18 11:43:58;;;;;;;10.32;8.90;;;;;;;;;;5041499;28;20234;-52
2022/08/18 11:46:32;;;;;;;10.98;9.95;;;;;;;;;;5038777;28;20828;-52
2022/08/18 11:49:01;;;;;;;11.70;9.25;;;;;;;;;;5038255;28;20699;-52
2022/08/18 11:51:30;;;;;;;11.07;8.00;;;;;;;;;;5033945;28;20754;-51
2022/08/18 11:53:58;;;;;;;8.82;8.13;;;;;;;;;;5040766;28;20227;-52
2022/08/18 11:56:26;;;;;;;9.68;8.60;;;;;;;;;;5043829;28;20697;-52
2022/08/18 11:58:54;;;;;;;9.82;8.88;;;;;;;;;;5039371;28;20236;-52
2022/08/18 12:01:31;;;;;;;8.43;7.57;;;;;;;;;;5041204;28;20314;-52
2022/08/18 12:04:07;;;;;;;15.35;9.02;;;;;;;;;;5037197;28;20229;-52
2022/08/18 12:06:34;;;;;;;11.50;8.88;;;;;;;;;;5034878;28;20312;-52
2022/08/18 12:09:02;;;;;;;11.00;7.95;;;;;;;;;;5033400;28;20601;-53
2022/08/18 12:11:30;;;;;;;8.05;7.35;;;;;;;;;;5041990;28;20235;-52
2022/08/18 12:13:58;;;;;;;9.50;7.65;;;;;;;;;;5039317;28;20251;-52
2022/08/18 12:16:31;;;;;;;9.63;8.73;;;;;;;;;;5029836;28;20669;-52
2022/08/18 12:18:59;;;;;;;8.13;7.25;;;;;;;;;;5040065;28;20247;-52
2022/08/18 12:21:25;;;;;;;9.38;8.23;;;;;;;;;;5043703;28;20689;-52
2022/08/18 12:23:52;;;;;;;8.20;7.35;;;;;;;;;;5039128;28;20258;-52
2022/08/18 12:26:19;;;;;;;9.98;8.93;;;;;;;;;;5039885;28;20231;-52
2022/08/18 12:28:45;;;;;;;9.15;8.38;;;;;;;;;;5031169;28;20733;-52
2022/08/18 12:31:11;;;;;;;9.70;8.88;;;;;;;;;;5035395;28;20399;-52
2022/08/18 12:33:38;;;;;;;9.60;8.80;;;;;;;;;;5033367;28;20234;-52
2022/08/18 12:36:06;;;;;;;8.68;7.88;;;;;;;;;;5032951;28;20227;-52
2022/08/18 12:38:33;;;;;;;14.80;9.05;;;;;;;;;;5039625;28;20231;-52
2022/08/18 12:40:59;;;;;;;8.23;7.63;;;;;;;;;;5036413;28;20258;-51
2022/08/18 12:43:26;;;;;;;10.70;8.13;;;;;;;;;;5041539;28;20782;-52
2022/08/18 12:45:52;;;;;;;9.38;8.40;;;;;;;;;;5036747;28;20245;-52
2022/08/18 12:48:19;;;;;;;9.77;8.77;;;;;;;;;;5038205;28;20326;-51
2022/08/18 12:50:45;;;;;;;9.70;8.90;;;;;;;;;;5039235;28;20613;-52
2022/08/18 12:53:13;;;;;;;8.90;8.10;;;;;;;;;;5034879;28;20335;-52
2022/08/18 12:55:40;;;;;;;9.13;8.18;;;;;;;;;;5038687;28;20243;-52
2022/08/18 12:58:07;;;;;;;8.07;7.30;;;;;;;;;;5037342;28;20234;-52
2022/08/18 13:00:34;;;;;;;8.80;8.00;;;;;;;;;;5038635;28;20691;-52
2022/08/18 13:03:00;;;;;;;9.25;7.90;;;;;;;;;;5035807;28;20248;-52
2022/08/18 13:05:27;;;;;;;10.13;9.00;;;;;;;;;;5034285;28;20578;-52
2022/08/18 13:07:53;;;;;;;10.55;8.40;;;;;;;;;;5036621;28;20235;-52
2022/08/18 13:10:21;;;;;;;9.07;8.27;;;;;;;;;;5027475;28;20239;-52
2022/08/18 13:12:47;;;;;;;9.00;8.05;;;;;;;;;;5041276;28;20245;-52
2022/08/18 13:15:14;;;;;;;9.50;8.52;;;;;;;;;;5037759;28;20223;-52
2022/08/18 13:17:40;;;;;;;9.30;8.48;;;;;;;;;;5037776;28;20263;-52
2022/08/18 13:20:08;;;;;;;8.95;8.18;;;;;;;;;;5039802;28;20261;-52
2022/08/18 13:22:35;;;;;;;8.55;7.75;;;;;;;;;;5033833;28;20721;-52
2022/08/18 13:25:05;;;;;;;9.60;8.70;;;;;;;;;;5032276;28;20290;-53
2022/08/18 13:27:33;;;;;;;9.10;8.32;;;;;;;;;;5042619;28;20752;-52
2022/08/18 13:30:00;;;;;;;9.02;8.32;;;;;;;;;;5039948;28;20232;-52
2022/08/18 13:32:26;;;;;;;8.93;8.05;;;;;;;;;;5035293;28;20300;-52
2022/08/18 13:34:52;;;;;;;8.10;7.53;;;;;;;;;;5040459;28;20632;-52
2022/08/18 13:37:19;;;;;;;8.13;7.30;;;;;;;;;;5033314;28;20243;-52
2022/08/18 13:39:45;;;;;;;8.75;7.88;;;;;;;;;;5029598;28;20760;-52
2022/08/18 13:42:12;;;;;;;8.20;7.50;;;;;;;;;;5035397;28;20385;-52
2022/08/18 13:44:40;;;;;;;7.57;6.97;;;;;;;;;;5041527;28;20740;-52
2022/08/18 13:47:07;;;;;;;7.78;7.18;;;;;;;;;;5034689;28;20326;-53
2022/08/18 13:49:33;;;;;;;8.55;7.75;;;;;;;;;;5037385;28;20247;-52
2022/08/18 13:51:59;;;;;;;7.50;6.80;;;;;;;;;;5032796;28;20231;-52
2022/08/18 13:54:27;;;;;;;7.72;7.13;;;;;;;;;;5032870;28;20247;-52
2022/08/18 13:56:54;;;;;;;7.20;6.50;;;;;;;;;;5037689;28;20309;-52
2022/08/18 13:59:21;;;;;;;7.20;6.38;;;;;;;;;;5038478;28;20238;-52
2022/08/18 14:01:50;;;;;;;6.43;5.97;;;;;;;;;;5035035;28;20239;-52
2022/08/18 14:04:16;;;;;;;7.03;6.40;;;;;;;;;;5038147;28;20566;-51
2022/08/18 14:06:43;;;;;;;6.50;6.00;;;;;;;;;;5035609;28;20235;-53
2022/08/18 14:09:09;;;;;;;7.30;6.80;;;;;;;;;;5040688;28;20232;-52
2022/08/18 14:11:36;;;;;;;7.07;6.57;;;;;;;;;;5038532;28;20848;-51
2022/08/18 14:14:04;;;;;;;6.28;5.82;;;;;;;;;;5036778;28;20240;-51
2022/08/18 14:16:31;;;;;;;7.50;6.90;;;;;;;;;;5036262;28;20261;-51
2022/08/18 14:27:09;;;;;;;7.15;6.55;;;;;;;;;;5031951;28;20249;-52
2022/08/18 14:29:36;;;;;;;6.88;6.28;;;;;;;;;;5028672;28;20227;-52
2022/08/18 14:32:03;;;;;;;7.28;6.60;;;;;;;;;;5033836;28;20235;-51
2022/08/18 14:34:30;;;;;;;7.60;7.00;;;;;;;;;;5036016;28;20229;-52
2022/08/18 14:36:57;;;;;;;10.57;6.78;;;;;;;;;;5031724;28;20622;-51
2022/08/18 14:39:23;;;;;;;7.93;7.18;;;;;;;;;;5040558;28;20227;-51
2022/08/18 14:41:49;;;;;;;7.80;6.97;;;;;;;;;;5033723;28;20228;-51
2022/08/18 14:44:16;;;;;;;8.05;7.45;;;;;;;;;;5043157;28;20228;-51
2022/08/18 14:46:46;;;;;;;9.05;8.27;;;;;;;;;;5036484;28;20231;-51
2022/08/18 14:49:12;;;;;;;8.65;7.78;;;;;;;;;;5041948;28;20232;-51
2022/08/18 14:51:41;;;;;;;8.40;7.72;;;;;;;;;;5038315;28;20225;-50
2022/08/18 14:54:08;;;;;;;7.95;7.30;;;;;;;;;;5037395;28;20648;-52
2022/08/18 14:56:35;;;;;;;8.93;8.20;;;;;;;;;;5042610;28;20731;-51
2022/08/18 14:59:02;;;;;;;8.02;7.43;;;;;;;;;;5042521;28;20239;-51
2022/08/18 15:01:28;;;;;;;8.20;7.60;;;;;;;;;;5037127;28;20770;-52
2022/08/18 15:03:54;;;;;;;7.88;7.10;;;;;;;;;;5038141;28;20245;-51